UGTBUGSB

Guest
Details From UGTB - TBILISI
To UGSB - BATUMI
Flight Number -
Tags generated
Created
Modified
Stats Distance 151 nm / 279 km
Max Altitude 12,100 ft / 3,688 m
Waypoints 3
Social Downloads 13
Likes 0
Share VATSIM

Download

Looking for another format? Having issues loading an existing format? Contact us
Advertisement - Login to hide

Notes

Basic altitude profile: - Ascent Rate: 2500ft/min - Ascent Speed: 250kts - Cruise Altitude: 35000ft - Cruise Speed: 420kts - Descent Rate: 1500ft/min - Descent Speed: 250kts

Route

UGTB TETRO UGSB

ID Type Via Altitude Latitude Longitude Leg Dist Tot Dist Heading (true) Name
O UGTB APT - 0 ft / 0 m 41.66858˚ 44.95364˚ - 0 nm - TBILISI
TETRO FIX - 12,100 ft / 3,688 m 41.67250˚ 42.85972˚ 93 nm 93 nm 271° / 269° -
O UGSB APT - 0 ft / 0 m 41.60966˚ 41.60032˚ 56 nm 150 nm 267° / 266° BATUMI

Altitude Profile

Advertisement - Login to hide

UGTB

Details ICAO UGTB (TBS)
Name TBILISI
Region Georgia
Timezone Asia/Tbilisi (UTC+4.0)
Stats Elevation 1,624 ft / 495 m (AMSL)
Location 41.668582° 44.953644°
Runways 2
Magnetic Variation 6.646° E

METAR

UGTB 111230Z 29014KT 270V330 CAVOK 09/02 Q1025 R31L/CLRD70 NOSIG

Decode

TAF

Not found

Departure Runways

ID Width Length Bearing (true) Bearing (mag) Surface Threshold Offset Overrun Length
13L 196 ft / 60 m 8,208 ft / 2,502 m 133.64° 126.99° Asphalt 0 ft / 0 m 0 ft / 0 m
13R 147 ft / 45 m 9,839 ft / 2,999 m 136.65° 130.00° Concrete 0 ft / 0 m 155 ft / 47 m
31L 147 ft / 45 m 9,839 ft / 2,999 m 316.67° 310.02° Concrete 0 ft / 0 m 150 ft / 46 m
31R 196 ft / 60 m 8,208 ft / 2,502 m 313.65° 307.00° Asphalt 0 ft / 0 m 0 ft / 0 m

UGSB

Details ICAO UGSB (BUS)
Name BATUMI
Region Georgia
Timezone Asia/Tbilisi (UTC+4.0)
Stats Elevation 105 ft / 32 m (AMSL)
Location 41.609660° 41.600318°
Runways 1
Magnetic Variation 6.546° E

METAR

UGSB 111230Z 13006KT 9999 SCT070 11/05 Q1030 R13/19//60 NOSIG

Decode

TAF

Not found

Destination Runways

ID Width Length Bearing (true) Bearing (mag) Surface Threshold Offset Overrun Length
13 150 ft / 46 m 7,321 ft / 2,232 m 130.81° 124.26° Asphalt 0 ft / 0 m 690 ft / 210 m
31 150 ft / 46 m 7,321 ft / 2,232 m 310.82° 304.27° Asphalt 0 ft / 0 m 0 ft / 0 m

Approach Navaids

Runway Type Ident Frequency Range Bearing (true) Bearing (mag) Slope Elevation
13 Localiser ILU 110.30 MHz 18 nm / 33 km 130.94° 124.39° - 121 ft / 37 m (AMSL)
13 Glidescope ILU 110.30 MHz 10 nm / 19 km 130.82° 124.27° 2.50° 127 ft / 39 m (AMSL)

Popular Alternatives